Time;durP1;ratioP1;P1;durP2;ratioP2;P2;SDS_P1;SDS_P2;PMS_P1;PMS_P2;Temp;Humidity;BMP_temperature;BMP_pressure;BME280_temperature;BME280_humidity;BME280_pressure;Samples;Min_cycle;Max_cycle;Signal;HPM_P1;HPM_P2
2023/03/13 00:00:16;;;;;;;3.10;1.75;;;11.80;99.90;;;;;;1911305;75;21119;-87
2023/03/13 00:03:08;;;;;;;3.10;1.92;;;11.80;99.90;;;;;;1902786;75;21109;-86
2023/03/13 00:08:39;;;;;;;3.33;1.98;;;11.90;99.90;;;;;;1935863;72;22200;-86
2023/03/13 00:14:10;;;;;;;4.20;2.10;;;11.90;99.90;;;;;;1936421;72;22260;-87
2023/03/13 00:17:02;;;;;;;5.20;2.08;;;11.90;99.90;;;;;;1901223;75;21155;-88
2023/03/13 00:22:33;;;;;;;2.37;1.85;;;11.90;99.90;;;;;;1945893;72;22232;-87
2023/03/13 00:25:25;;;;;;;3.30;1.80;;;11.90;99.90;;;;;;1921094;73;21322;-87
2023/03/13 00:31:07;;;;;;;2.98;1.55;;;11.90;99.90;;;;;;1928660;72;20271;-88
2023/03/13 00:34:01;;;;;;;1.90;1.55;;;11.90;99.90;;;;;;1889868;75;21094;-88
2023/03/13 00:36:54;;;;;;;3.80;1.70;;;11.90;99.90;;;;;;1882272;75;21063;-86
2023/03/13 00:39:48;;;;;;;3.72;1.80;;;12.00;99.90;;;;;;1857388;77;21070;-87
2023/03/13 00:42:40;;;;;;;3.92;1.90;;;12.00;99.90;;;;;;1893962;75;21068;-86
2023/03/13 00:48:19;;;;;;;3.98;2.17;;;12.00;99.90;;;;;;1942656;72;22178;-85
2023/03/13 00:51:14;;;;;;;3.87;2.10;;;12.10;99.90;;;;;;1894537;75;21582;-86
2023/03/13 00:54:06;;;;;;;4.05;1.98;;;12.10;99.90;;;;;;1874684;75;21101;-88
2023/03/13 00:56:57;;;;;;;4.62;1.70;;;12.10;99.90;;;;;;1892969;75;21106;-87
2023/03/13 00:59:49;;;;;;;3.27;1.65;;;12.10;99.90;;;;;;1894283;75;21566;-87
2023/03/13 01:02:44;;;;;;;2.92;1.90;;;12.10;99.90;;;;;;1873044;75;21060;-86
2023/03/13 01:05:36;;;;;;;2.95;1.52;;;12.00;99.90;;;;;;1876687;75;21165;-87
2023/03/13 01:08:30;;;;;;;3.05;1.60;;;12.00;99.90;;;;;;1895295;74;21624;-86
2023/03/13 01:11:26;;;;;;;3.08;1.80;;;12.00;99.90;;;;;;1897878;75;21152;-86
2023/03/13 01:14:20;;;;;;;3.15;1.57;;;12.00;99.90;;;;;;1891886;75;21115;-87
2023/03/13 01:17:11;;;;;;;4.58;1.50;;;12.00;99.90;;;;;;1891050;75;21222;-86
2023/03/13 01:20:04;;;;;;;5.40;1.30;;;12.00;99.90;;;;;;1887964;75;21236;-86
2023/03/13 01:22:56;;;;;;;1.27;1.00;;;12.10;99.90;;;;;;1890270;75;21145;-86
2023/03/13 01:28:40;;;;;;;3.00;1.40;;;12.10;99.90;;;;;;1951723;72;22253;-86
2023/03/13 01:34:17;;;;;;;3.12;2.10;;;12.10;99.90;;;;;;1941601;72;22178;-86
2023/03/13 01:37:09;;;;;;;3.77;2.00;;;12.10;99.90;;;;;;1904839;75;21083;-88
2023/03/13 01:40:00;;;;;;;2.22;1.77;;;12.10;99.90;;;;;;1901830;75;21151;-88
2023/03/13 01:46:07;;;;;;;4.17;2.45;;;12.00;99.90;;;;;;1926166;72;38459;-86
2023/03/13 01:52:29;;;;;;;3.25;2.27;;;12.00;99.90;;;;;;1989882;71;22191;-86
2023/03/13 02:01:21;;;;;;;3.40;1.90;;;11.80;99.90;;;;;;1939682;72;22664;-86
2023/03/13 02:07:21;;;;;;;3.65;2.33;;;11.80;99.90;;;;;;1932450;72;22255;-86
2023/03/13 02:13:12;;;;;;;4.70;2.02;;;11.70;99.90;;;;;;1926675;72;22199;-86
2023/03/13 02:16:03;;;;;;;4.20;2.20;;;11.70;99.90;;;;;;1879397;74;21114;-86
2023/03/13 02:21:39;;;;;;;3.67;2.02;;;11.70;99.90;;;;;;1943807;72;22186;-87
2023/03/13 02:27:10;;;;;;;2.90;2.17;;;11.60;99.90;;;;;;1952310;72;22593;-88
2023/03/13 02:30:07;;;;;;;2.58;2.00;;;11.60;99.90;;;;;;1892159;74;21247;-86
2023/03/13 02:33:12;;;;;;;2.77;2.15;;;11.60;99.90;;;;;;1896906;75;21140;-87
2023/03/13 02:36:07;;;;;;;2.83;2.20;;;11.60;99.90;;;;;;1895452;75;21121;-87
2023/03/13 02:39:02;;;;;;;3.80;2.50;;;11.50;99.90;;;;;;1904428;75;21155;-88
2023/03/13 02:41:54;;;;;;;3.72;2.33;;;11.50;99.90;;;;;;1885978;75;21162;-89
2023/03/13 02:47:27;;;;;;;2.12;1.92;;;11.50;99.90;;;;;;1935153;72;22469;-88
2023/03/13 02:50:20;;;;;;;2.92;1.90;;;11.40;99.90;;;;;;1887952;75;21083;-87
2023/03/13 02:53:13;;;;;;;3.35;2.35;;;11.40;99.90;;;;;;1885559;75;21169;-87
2023/03/13 02:56:06;;;;;;;3.83;2.10;;;11.40;99.90;;;;;;1894093;75;21039;-87
2023/03/13 02:58:58;;;;;;;6.00;2.42;;;11.40;99.90;;;;;;1890353;75;21349;-86
2023/03/13 03:01:51;;;;;;;3.15;2.20;;;11.40;99.90;;;;;;1880308;75;21093;-86
2023/03/13 03:04:55;;;;;;;2.92;2.40;;;11.40;99.90;;;;;;1870986;75;21172;-87
2023/03/13 03:07:47;;;;;;;4.12;2.22;;;11.40;99.90;;;;;;1885284;75;21109;-87
2023/03/13 03:13:23;;;;;;;4.37;2.50;;;11.30;99.90;;;;;;1928874;72;22260;-88
2023/03/13 03:16:17;;;;;;;4.60;2.67;;;11.30;99.90;;;;;;1874693;75;21183;-88
2023/03/13 03:21:48;;;;;;;4.45;2.98;;;11.30;99.90;;;;;;1928849;72;22227;-86
2023/03/13 03:24:41;;;;;;;5.53;2.47;;;11.30;99.90;;;;;;1894059;75;21119;-86
2023/03/13 03:27:35;;;;;;;3.20;2.08;;;11.30;99.90;;;;;;1862748;77;21105;-86
2023/03/13 03:33:09;;;;;;;5.12;2.27;;;11.20;99.90;;;;;;1943283;72;22269;-86
2023/03/13 03:38:43;;;;;;;3.33;2.33;;;11.20;99.90;;;;;;1935523;72;22189;-86
2023/03/13 03:41:36;;;;;;;3.35;2.10;;;11.20;99.90;;;;;;1917252;75;21142;-87
2023/03/13 03:47:08;;;;;;;3.15;1.87;;;11.20;99.90;;;;;;1949133;72;22169;-87
2023/03/13 03:50:02;;;;;;;4.17;1.80;;;11.20;99.90;;;;;;1906488;74;21162;-88
2023/03/13 03:55:35;;;;;;;3.62;1.42;;;11.20;99.90;;;;;;1927054;72;22251;-86
2023/03/13 04:01:07;;;;;;;2.17;1.50;;;11.30;99.90;;;;;;1936351;72;22193;-86
2023/03/13 04:06:37;;;;;;;4.35;1.75;;;11.40;99.90;;;;;;1945557;72;22241;-88
2023/03/13 04:09:30;;;;;;;5.12;2.45;;;11.40;99.90;;;;;;1931588;73;21577;-87
2023/03/13 04:15:05;;;;;;;3.75;2.20;;;11.30;99.90;;;;;;1941500;72;22759;-89
2023/03/13 04:17:59;;;;;;;5.00;2.30;;;11.30;99.90;;;;;;1888489;75;21356;-89
2023/03/13 04:20:50;;;;;;;3.40;2.45;;;11.30;99.90;;;;;;1884759;75;21189;-88
2023/03/13 04:23:41;;;;;;;4.45;2.35;;;11.20;99.90;;;;;;1911683;75;21145;-87
2023/03/13 04:29:14;;;;;;;4.42;2.50;;;11.20;99.90;;;;;;1930926;72;22258;-86
2023/03/13 04:32:13;;;;;;;3.42;2.40;;;11.20;99.90;;;;;;1857926;75;21145;-87
2023/03/13 04:37:59;;;;;;;5.37;2.65;;;11.10;99.90;;;;;;1974804;72;22146;-89
2023/03/13 04:43:32;;;;;;;4.10;2.83;;;11.00;99.90;;;;;;1935293;72;22750;-88
2023/03/13 04:46:25;;;;;;;4.78;2.35;;;11.00;99.90;;;;;;1854278;74;21063;-89
2023/03/13 04:52:03;;;;;;;3.02;2.25;;;11.00;99.90;;;;;;1929054;72;22141;-86
2023/03/13 04:57:55;;;;;;;3.47;2.40;;;11.10;99.90;;;;;;1937679;72;22194;-86
2023/03/13 05:06:24;;;;;;;4.30;1.98;;;11.00;99.90;;;;;;1950295;72;22202;-86
2023/03/13 05:09:29;;;;;;;4.37;2.27;;;10.90;99.90;;;;;;1902517;75;21371;-87
2023/03/13 05:12:34;;;;;;;3.50;1.90;;;10.90;99.90;;;;;;1834207;75;21545;-86
2023/03/13 05:15:30;;;;;;;3.10;2.12;;;10.90;99.90;;;;;;1897484;73;21117;-86
2023/03/13 05:21:20;;;;;;;4.35;2.30;;;10.90;99.90;;;;;;1933990;72;22277;-86
2023/03/13 05:26:54;;;;;;;4.40;1.60;;;10.90;99.90;;;;;;1950977;72;22182;-86
2023/03/13 05:32:27;;;;;;;3.60;1.80;;;10.90;99.90;;;;;;1928007;72;22474;-87
2023/03/13 05:35:23;;;;;;;2.90;1.60;;;10.90;99.90;;;;;;1898924;75;21172;-89
2023/03/13 05:40:58;;;;;;;3.20;1.62;;;10.80;99.90;;;;;;1933512;72;22255;-88
2023/03/13 05:46:36;;;;;;;3.80;2.05;;;10.70;99.90;;;;;;1951149;72;22157;-88
2023/03/13 05:49:35;;;;;;;3.27;2.00;;;10.70;99.90;;;;;;1886481;75;21549;-88
2023/03/13 05:52:29;;;;;;;3.92;1.60;;;10.60;99.90;;;;;;1905889;75;21109;-88
2023/03/13 05:55:28;;;;;;;4.05;1.77;;;10.60;99.90;;;;;;1915365;75;21151;-88
2023/03/13 05:58:39;;;;;;;5.30;2.00;;;10.60;99.90;;;;;;1907414;75;21123;-87
2023/03/13 06:01:32;;;;;;;2.42;1.80;;;10.50;99.90;;;;;;1891168;75;21438;-88
2023/03/13 06:04:25;;;;;;;3.95;2.00;;;10.50;99.90;;;;;;1883813;75;21083;-87
2023/03/13 06:07:17;;;;;;;4.33;1.98;;;10.60;99.90;;;;;;1906381;75;21084;-87
2023/03/13 06:12:54;;;;;;;3.98;2.10;;;10.60;99.90;;;;;;1938215;72;22201;-88
2023/03/13 06:15:56;;;;;;;3.12;2.12;;;10.50;99.90;;;;;;1916579;75;21093;-87
2023/03/13 06:21:37;;;;;;;4.45;2.00;;;10.50;99.90;;;;;;1948811;72;23011;-89
2023/03/13 06:24:29;;;;;;;2.37;1.70;;;10.50;99.90;;;;;;1896012;75;21095;-88
2023/03/13 06:27:20;;;;;;;3.15;2.10;;;10.50;99.90;;;;;;1878677;75;21144;-88
2023/03/13 06:30:20;;;;;;;3.05;2.12;;;10.50;99.90;;;;;;1880536;75;21071;-88
2023/03/13 06:33:12;;;;;;;3.70;1.95;;;10.50;99.90;;;;;;1887891;75;21055;-87
2023/03/13 06:36:04;;;;;;;4.00;2.02;;;10.60;99.90;;;;;;1888779;75;21153;-87
2023/03/13 06:39:17;;;;;;;4.58;2.17;;;10.60;99.90;;;;;;1872378;75;21212;-88
2023/03/13 06:42:09;;;;;;;5.05;1.90;;;10.60;99.90;;;;;;1898260;75;21135;-87
2023/03/13 06:45:02;;;;;;;2.37;2.10;;;10.70;99.90;;;;;;1893021;75;21064;-87
2023/03/13 06:47:53;;;;;;;3.00;1.82;;;10.70;99.90;;;;;;1878586;75;21738;-87
2023/03/13 06:50:44;;;;;;;3.45;2.00;;;10.80;99.90;;;;;;1883541;75;21111;-88
2023/03/13 06:53:36;;;;;;;4.03;1.70;;;10.80;99.90;;;;;;1894072;75;21110;-88
2023/03/13 06:56:27;;;;;;;3.37;1.80;;;10.70;99.90;;;;;;1881847;75;21111;-86
2023/03/13 06:59:18;;;;;;;5.33;2.12;;;10.70;99.90;;;;;;1880598;75;21542;-88
2023/03/13 07:02:12;;;;;;;3.83;2.10;;;10.70;99.90;;;;;;1883904;75;21090;-87
2023/03/13 07:05:04;;;;;;;4.47;1.77;;;10.70;99.90;;;;;;1893933;75;21676;-87
2023/03/13 07:07:56;;;;;;;2.87;1.52;;;10.60;99.90;;;;;;1889621;75;21052;-87
2023/03/13 07:13:26;;;;;;;4.17;1.80;;;10.80;99.90;;;;;;1949925;72;22201;-89
2023/03/13 07:16:18;;;;;;;2.75;1.77;;;10.80;99.90;;;;;;1884484;75;21188;-87
2023/03/13 07:19:10;;;;;;;2.80;1.50;;;10.90;99.90;;;;;;1887245;75;21172;-87
2023/03/13 07:24:46;;;;;;;5.03;2.05;;;11.10;99.90;;;;;;1931019;72;27993;-88
2023/03/13 07:27:37;;;;;;;2.87;1.70;;;11.40;99.90;;;;;;1903613;74;21679;-88
2023/03/13 07:30:29;;;;;;;2.77;1.60;;;11.50;99.90;;;;;;1930501;74;21095;-87
2023/03/13 07:33:20;;;;;;;2.72;1.50;;;11.50;99.90;;;;;;1904446;75;21088;-87
2023/03/13 07:38:52;;;;;;;4.12;1.75;;;11.50;99.90;;;;;;1929945;72;22331;-87
2023/03/13 07:41:44;;;;;;;3.58;1.50;;;11.60;99.90;;;;;;1893993;75;21315;-86
2023/03/13 07:47:22;;;;;;;4.40;2.08;;;11.80;99.90;;;;;;1908815;72;27996;-89
2023/03/13 07:50:13;;;;;;;2.90;1.37;;;12.10;99.90;;;;;;1892734;75;21108;-87
2023/03/13 07:53:04;;;;;;;10.78;1.75;;;12.20;99.90;;;;;;1882975;75;21097;-87
2023/03/13 07:55:59;;;;;;;3.30;1.67;;;12.20;99.90;;;;;;1886332;75;21090;-89
2023/03/13 08:01:36;;;;;;;1.92;1.42;;;12.40;99.90;;;;;;1939051;72;22130;-88
2023/03/13 08:04:28;;;;;;;1.75;1.10;;;12.50;99.90;;;;;;1874355;75;21107;-87
2023/03/13 08:12:54;;;;;;;4.12;1.50;;;12.80;99.90;;;;;;1946726;72;22169;-89
2023/03/13 08:15:53;;;;;;;5.05;1.60;;;12.70;99.90;;;;;;1909686;74;21142;-88
2023/03/13 08:21:29;;;;;;;3.12;1.30;;;12.80;99.90;;;;;;1960630;72;22170;-88
2023/03/13 08:24:20;;;;;;;2.92;1.57;;;12.90;99.90;;;;;;1906144;74;21098;-88
2023/03/13 08:27:12;;;;;;;5.78;1.50;;;13.00;99.90;;;;;;1925202;73;21128;-88
2023/03/13 08:30:05;;;;;;;2.95;1.50;;;13.10;99.90;;;;;;1908164;74;21143;-87
2023/03/13 08:32:56;;;;;;;3.70;1.52;;;13.10;99.90;;;;;;1913804;74;21567;-88
2023/03/13 08:35:48;;;;;;;2.15;1.52;;;13.10;99.90;;;;;;1925856;74;21768;-87
2023/03/13 08:41:34;;;;;;;4.60;1.52;;;13.20;99.90;;;;;;1945214;72;22254;-88
2023/03/13 08:47:09;;;;;;;4.70;1.50;;;13.30;99.90;;;;;;1931790;72;22586;-87
2023/03/13 08:50:11;;;;;;;2.72;1.55;;;13.40;99.90;;;;;;1888168;75;21167;-89
2023/03/13 08:53:08;;;;;;;4.10;1.55;;;13.50;99.90;;;;;;1875135;75;21123;-88
2023/03/13 08:56:00;;;;;;;3.33;1.70;;;13.50;99.90;;;;;;1881951;75;21178;-88
2023/03/13 09:12:47;;;;;;;3.83;1.60;;;13.50;99.90;;;;;;1941237;72;27326;-89
2023/03/13 09:15:40;;;;;;;2.25;1.62;;;13.60;99.90;;;;;;1905368;74;21130;-89
2023/03/13 09:21:17;;;;;;;2.17;1.47;;;13.70;99.90;;;;;;1951542;72;22172;-86
2023/03/13 09:24:16;;;;;;;3.20;1.37;;;13.90;99.90;;;;;;1912505;74;21095;-87
2023/03/13 09:27:10;;;;;;;3.67;1.30;;;13.80;99.90;;;;;;1889580;74;21096;-87
2023/03/13 09:30:01;;;;;;;1.37;0.93;;;13.80;99.90;;;;;;1923078;74;21091;-87
2023/03/13 09:32:53;;;;;;;3.02;1.10;;;13.90;99.90;;;;;;1904474;74;21121;-87
2023/03/13 09:35:50;;;;;;;5.97;1.52;;;14.00;99.90;;;;;;1920347;74;21164;-86
2023/03/13 09:38:42;;;;;;;2.72;1.50;;;14.00;99.90;;;;;;1913644;74;21162;-86
2023/03/13 09:41:38;;;;;;;3.30;1.40;;;14.00;99.90;;;;;;1914040;73;21076;-87
2023/03/13 09:44:41;;;;;;;3.65;1.37;;;14.00;99.90;;;;;;1904713;74;21200;-86
2023/03/13 09:47:46;;;;;;;6.03;1.90;;;14.10;99.90;;;;;;1904715;74;21575;-87
2023/03/13 09:50:50;;;;;;;3.65;1.55;;;14.20;99.90;;;;;;1913465;74;21573;-87
2023/03/13 09:56:28;;;;;;;4.00;1.65;;;14.30;99.90;;;;;;1930397;72;22169;-87
2023/03/13 09:59:22;;;;;;;2.65;1.47;;;14.40;99.90;;;;;;1896359;74;21098;-88
2023/03/13 10:05:22;;;;;;;4.25;1.77;;;14.80;99.90;;;;;;1944460;72;22185;-87
2023/03/13 10:08:25;;;;;;;5.40;1.50;;;14.90;99.90;;;;;;1922062;73;21407;-87
2023/03/13 10:11:27;;;;;;;6.35;1.87;;;15.00;99.90;;;;;;1934769;73;21091;-88
2023/03/13 10:17:07;;;;;;;12.70;2.27;;;15.10;99.90;;;;;;1953295;72;23035;-88
2023/03/13 10:20:07;;;;;;;3.05;1.00;;;15.10;99.90;;;;;;1896897;75;21602;-87
2023/03/13 10:23:05;;;;;;;4.80;1.20;;;15.30;99.90;;;;;;1894111;75;21094;-86
2023/03/13 10:26:00;;;;;;;3.87;1.20;;;15.40;99.90;;;;;;1887998;75;21090;-86
2023/03/13 10:29:24;;;;;;;3.00;1.20;;;15.50;99.90;;;;;;1885227;75;21098;-86
2023/03/13 10:32:18;;;;;;;3.77;1.27;;;15.60;99.90;;;;;;1883269;76;21085;-86
2023/03/13 10:37:50;;;;;;;3.47;0.90;;;16.00;99.90;;;;;;1938937;72;22233;-87
2023/03/13 10:40:42;;;;;;;2.30;1.12;;;16.10;99.90;;;;;;1884611;74;21314;-87
2023/03/13 10:46:25;;;;;;;4.20;1.22;;;16.50;99.90;;;;;;1934668;72;22202;-87
2023/03/13 10:52:02;;;;;;;4.65;1.45;;;17.00;99.90;;;;;;1932355;72;22262;-86
2023/03/13 10:54:56;;;;;;;2.33;1.00;;;17.10;99.90;;;;;;1890280;75;21180;-88
2023/03/13 10:57:57;;;;;;;3.77;1.30;;;17.30;99.90;;;;;;1889271;75;21730;-86
2023/03/13 11:00:52;;;;;;;3.62;1.07;;;17.50;99.90;;;;;;1889884;75;21095;-87
2023/03/13 11:03:52;;;;;;;2.77;0.93;;;17.60;99.90;;;;;;1880258;75;21420;-86
2023/03/13 11:06:45;;;;;;;6.55;1.15;;;17.90;99.90;;;;;;1893403;75;21256;-86
2023/03/13 11:09:36;;;;;;;3.37;0.90;;;18.10;99.90;;;;;;1889694;75;21095;-86
2023/03/13 11:15:25;;;;;;;1.87;0.80;;;18.50;99.90;;;;;;1947477;72;22219;-88
2023/03/13 11:18:19;;;;;;;5.10;0.90;;;18.60;99.90;;;;;;1926627;73;21066;-86
2023/03/13 11:24:01;;;;;;;2.52;0.90;;;18.70;99.90;;;;;;1937361;72;22271;-85
2023/03/13 11:26:56;;;;;;;2.77;1.00;;;18.60;99.90;;;;;;1876624;76;21200;-85
2023/03/13 11:32:40;;;;;;;2.00;0.70;;;18.40;99.90;;;;;;1945159;72;22204;-85
2023/03/13 11:38:19;;;;;;;2.70;0.70;;;18.70;99.90;;;;;;1927419;72;22217;-85
2023/03/13 11:41:21;;;;;;;1.37;0.70;;;18.90;99.90;;;;;;1892191;75;21156;-88
2023/03/13 11:44:24;;;;;;;4.37;0.90;;;19.00;99.90;;;;;;1883755;75;21082;-85
2023/03/13 11:47:29;;;;;;;4.25;0.85;;;18.90;99.90;;;;;;1890636;75;21149;-86
2023/03/13 11:53:25;;;;;;;5.05;1.02;;;19.10;99.90;;;;;;1939336;72;22643;-85
2023/03/13 11:56:22;;;;;;;1.98;0.70;;;19.10;99.90;;;;;;1877306;75;21544;-86
2023/03/13 11:59:31;;;;;;;2.70;0.90;;;19.00;99.90;;;;;;1892606;75;21095;-86
2023/03/13 12:02:23;;;;;;;;;;;19.20;99.90;;;;;;1881839;75;21358;-86
2023/03/13 12:05:18;;;;;;;4.35;0.80;;;19.20;99.90;;;;;;1901361;75;20236;-86
2023/03/13 12:08:14;;;;;;;2.50;0.72;;;19.40;99.90;;;;;;1880626;75;21177;-86
2023/03/13 12:11:14;;;;;;;3.17;0.60;;;19.60;99.90;;;;;;1876258;75;21150;-86
2023/03/13 12:14:15;;;;;;;2.42;0.72;;;19.70;99.90;;;;;;1884025;75;21172;-86
2023/03/13 12:19:56;;;;;;;2.17;0.70;;;20.20;99.90;;;;;;1953967;72;22692;-87
2023/03/13 12:22:50;;;;;;;1.62;0.75;;;20.50;99.90;;;;;;1939474;73;21145;-85
2023/03/13 12:25:45;;;;;;;2.30;0.57;;;20.50;99.90;;;;;;1931244;73;21094;-86
2023/03/13 12:34:12;;;;;;;0.70;0.40;;;21.30;99.90;;;;;;1938646;72;22229;-86
2023/03/13 12:37:07;;;;;;;1.35;0.40;;;21.60;99.90;;;;;;1907840;75;21604;-86
2023/03/13 12:40:06;;;;;;;0.75;0.40;;;22.10;99.90;;;;;;1903837;75;21234;-86
2023/03/13 12:45:53;;;;;;;0.60;0.40;;;22.70;99.90;;;;;;1934000;73;22146;-87
2023/03/13 12:49:33;;;;;;;1.27;0.30;;;23.00;99.90;;;;;;1914127;75;21221;-91
2023/03/13 12:55:55;;;;;;;0.95;0.23;;;24.10;96.90;;;;;;1938668;72;22150;-86
2023/03/13 12:58:49;;;;;;;2.05;0.30;;;24.30;95.00;;;;;;1896442;75;21095;-85
2023/03/13 13:01:44;;;;;;;0.78;0.40;;;24.40;94.70;;;;;;1879602;75;21195;-86
2023/03/13 13:07:25;;;;;;;0.65;0.20;;;24.60;92.60;;;;;;1943560;72;22286;-85
2023/03/13 13:10:21;;;;;;;1.05;0.30;;;24.70;92.00;;;;;;1936529;73;21095;-86
2023/03/13 13:13:25;;;;;;;0.62;0.20;;;24.70;90.70;;;;;;1938974;73;21569;-88
2023/03/13 13:16:20;;;;;;;0.10;0.10;;;24.80;90.10;;;;;;1923507;73;21150;-85
2023/03/13 13:19:46;;;;;;;1.05;0.30;;;24.90;88.00;;;;;;1948834;73;21121;-86
2023/03/13 13:22:50;;;;;;;0.85;0.20;;;24.80;87.20;;;;;;1920788;73;21149;-85
2023/03/13 13:25:43;;;;;;;0.35;0.10;;;24.90;85.40;;;;;;1938843;73;21093;-85
2023/03/13 13:28:35;;;;;;;1.17;0.23;;;24.90;84.70;;;;;;1936078;73;21164;-85
2023/03/13 13:31:58;;;;;;;0.78;0.30;;;24.90;84.00;;;;;;1929944;73;21170;-86
2023/03/13 13:34:58;;;;;;;1.82;0.23;;;24.90;84.10;;;;;;1942244;72;21138;-85
2023/03/13 13:37:49;;;;;;;1.30;0.28;;;25.00;83.30;;;;;;1928634;73;21086;-85
2023/03/13 13:40:51;;;;;;;0.28;0.23;;;25.00;82.60;;;;;;1927944;73;21557;-88
2023/03/13 13:43:44;;;;;;;1.42;0.20;;;25.00;81.90;;;;;;1927544;73;21546;-85
2023/03/13 13:46:35;;;;;;;0.62;0.20;;;24.90;82.10;;;;;;1937925;73;21140;-85
2023/03/13 13:49:37;;;;;;;2.62;0.20;;;24.90;81.70;;;;;;1932427;73;21209;-85
2023/03/13 13:52:37;;;;;;;0.40;0.28;;;25.00;81.20;;;;;;1929639;73;21149;-84
2023/03/13 13:55:57;;;;;;;0.28;0.20;;;25.10;80.20;;;;;;1929267;73;21083;-85
2023/03/13 13:58:48;;;;;;;0.68;0.20;;;25.00;80.60;;;;;;1927510;73;21108;-85
2023/03/13 14:01:42;;;;;;;0.37;0.20;;;25.00;80.20;;;;;;1927598;73;21610;-84
2023/03/13 14:04:38;;;;;;;1.02;0.30;;;25.10;80.20;;;;;;1941352;72;21121;-84
2023/03/13 14:07:43;;;;;;;1.85;0.30;;;25.10;80.00;;;;;;1941374;73;21150;-84
2023/03/13 14:10:40;;;;;;;0.33;0.30;;;25.20;79.60;;;;;;1944921;73;21176;-85
2023/03/13 14:13:31;;;;;;;0.30;0.10;;;25.10;79.60;;;;;;1937928;73;21106;-84
2023/03/13 14:16:26;;;;;;;0.82;0.20;;;25.30;79.10;;;;;;1938026;73;21487;-84
2023/03/13 14:19:26;;;;;;;1.17;0.30;;;25.40;79.00;;;;;;1960243;73;21051;-84
2023/03/13 14:22:18;;;;;;;1.80;0.30;;;25.40;79.80;;;;;;1937071;73;21089;-85
2023/03/13 14:25:11;;;;;;;0.78;0.20;;;25.30;80.50;;;;;;1941852;73;21098;-85
2023/03/13 14:28:04;;;;;;;1.00;0.30;;;25.50;80.00;;;;;;1937952;73;21118;-84
2023/03/13 14:30:57;;;;;;;1.37;0.30;;;25.60;79.20;;;;;;1936846;73;21090;-85
2023/03/13 14:33:49;;;;;;;2.17;0.40;;;25.80;78.70;;;;;;1936774;73;21093;-85
2023/03/13 14:36:49;;;;;;;2.05;0.30;;;25.80;79.10;;;;;;1939309;73;21188;-85
2023/03/13 14:39:44;;;;;;;0.20;0.20;;;25.80;78.40;;;;;;1943034;73;21105;-85
2023/03/13 14:42:41;;;;;;;1.75;0.40;;;25.80;77.70;;;;;;1938349;73;21763;-85
2023/03/13 14:45:35;;;;;;;1.75;0.20;;;25.90;77.20;;;;;;1928313;73;21103;-85
2023/03/13 14:48:31;;;;;;;1.40;0.30;;;25.70;77.00;;;;;;1930178;73;21087;-85
2023/03/13 14:51:25;;;;;;;1.67;0.40;;;26.00;76.60;;;;;;1933457;73;21146;-85
2023/03/13 14:54:32;;;;;;;1.27;0.20;;;26.10;76.30;;;;;;1943565;73;21119;-85
2023/03/13 14:57:25;;;;;;;4.30;0.93;;;25.80;76.10;;;;;;1935285;72;21518;-85
2023/03/13 15:00:35;;;;;;;1.60;0.50;;;25.50;77.00;;;;;;1940611;73;21097;-85
2023/03/13 15:03:32;;;;;;;1.57;0.23;;;25.30;78.20;;;;;;1937102;73;21135;-85
2023/03/13 15:06:25;;;;;;;1.30;0.50;;;25.10;78.20;;;;;;1953828;73;21146;-85
2023/03/13 15:09:19;;;;;;;0.37;0.30;;;24.90;78.80;;;;;;1948255;73;21629;-84
2023/03/13 15:12:17;;;;;;;0.30;0.20;;;24.90;78.70;;;;;;1935750;73;21118;-85
2023/03/13 15:15:11;;;;;;;0.30;0.30;;;24.80;78.90;;;;;;1927357;73;21545;-85
2023/03/13 15:18:02;;;;;;;1.45;0.30;;;24.70;79.30;;;;;;1948726;73;21119;-85
2023/03/13 15:20:56;;;;;;;1.32;0.30;;;24.50;79.70;;;;;;1949040;73;21168;-86
2023/03/13 15:23:50;;;;;;;1.50;0.40;;;24.50;80.30;;;;;;1925764;74;21573;-85
2023/03/13 15:26:42;;;;;;;0.40;0.30;;;24.80;80.10;;;;;;1938795;73;21561;-85
2023/03/13 15:29:33;;;;;;;0.78;0.42;;;24.90;80.50;;;;;;1948273;73;21152;-85
2023/03/13 15:32:27;;;;;;;0.30;0.30;;;24.70;80.70;;;;;;1948414;73;21086;-85
2023/03/13 15:35:28;;;;;;;1.57;0.50;;;24.90;80.90;;;;;;1944281;73;21203;-85
2023/03/13 15:38:21;;;;;;;0.62;0.40;;;25.20;80.60;;;;;;1925667;74;21135;-85
2023/03/13 15:41:13;;;;;;;0.60;0.30;;;25.70;80.10;;;;;;1940547;73;21116;-86
2023/03/13 15:44:04;;;;;;;1.80;0.50;;;25.80;79.90;;;;;;1948404;73;21661;-85
2023/03/13 15:46:56;;;;;;;0.62;0.35;;;25.60;79.60;;;;;;1948500;73;21091;-85
2023/03/13 15:49:48;;;;;;;0.85;0.30;;;25.40;79.50;;;;;;1947201;73;21574;-85
2023/03/13 15:52:39;;;;;;;1.10;0.20;;;25.20;79.90;;;;;;1924748;73;21100;-86
2023/03/13 15:55:31;;;;;;;1.50;0.30;;;25.30;80.20;;;;;;1924836;74;21151;-85
2023/03/13 15:58:24;;;;;;;0.72;0.30;;;25.50;79.90;;;;;;1932807;73;21114;-85
2023/03/13 16:01:17;;;;;;;0.30;0.20;;;25.70;79.80;;;;;;1936901;73;21094;-85
2023/03/13 16:04:10;;;;;;;1.75;0.50;;;26.30;78.70;;;;;;1940790;73;21094;-85
2023/03/13 16:07:02;;;;;;;0.40;0.30;;;26.60;78.10;;;;;;1936037;72;21125;-84
2023/03/13 16:09:53;;;;;;;1.45;0.40;;;26.90;77.10;;;;;;1931964;74;21078;-84
2023/03/13 16:12:45;;;;;;;2.80;0.40;;;26.80;77.00;;;;;;1921084;72;21102;-83
2023/03/13 16:18:24;;;;;;;2.37;0.70;;;27.00;77.20;;;;;;1954152;72;22149;-84
2023/03/13 16:21:20;;;;;;;2.33;0.30;;;27.20;76.70;;;;;;1895340;74;21148;-84
2023/03/13 16:24:12;;;;;;;0.85;0.30;;;27.10;76.70;;;;;;1908622;75;21165;-84
2023/03/13 16:27:05;;;;;;;0.50;0.33;;;26.40;77.40;;;;;;1897059;73;21183;-84
2023/03/13 16:29:57;;;;;;;0.40;0.30;;;25.80;78.30;;;;;;1899093;75;21166;-84
2023/03/13 16:32:48;;;;;;;1.45;0.40;;;25.30;79.50;;;;;;1894743;75;21151;-84
2023/03/13 16:35:40;;;;;;;1.45;0.50;;;25.20;80.30;;;;;;1895811;75;21098;-84
2023/03/13 16:38:32;;;;;;;1.62;0.40;;;25.60;79.80;;;;;;1894509;75;21150;-84
2023/03/13 16:41:25;;;;;;;1.98;0.45;;;25.90;80.00;;;;;;1899147;75;21102;-84
2023/03/13 16:44:16;;;;;;;1.22;0.40;;;26.00;79.50;;;;;;1895752;75;21099;-84
2023/03/13 16:47:17;;;;;;;0.40;0.40;;;25.50;79.70;;;;;;1887661;75;21615;-84
2023/03/13 16:50:23;;;;;;;0.80;0.37;;;24.70;80.90;;;;;;1905891;75;21144;-84
2023/03/13 16:53:14;;;;;;;0.45;0.45;;;24.30;82.20;;;;;;1906133;75;21146;-84
2023/03/13 16:56:10;;;;;;;1.65;0.40;;;23.90;83.30;;;;;;1888455;75;21615;-84
2023/03/13 16:59:02;;;;;;;0.98;0.47;;;23.60;84.30;;;;;;1897283;75;21180;-84
2023/03/13 17:01:54;;;;;;;1.22;0.45;;;23.30;85.40;;;;;;1894282;75;21832;-84
2023/03/13 17:04:46;;;;;;;0.82;0.40;;;23.20;85.80;;;;;;1894380;75;21220;-84
2023/03/13 17:07:38;;;;;;;1.15;0.50;;;23.00;86.50;;;;;;1896605;75;21096;-84
2023/03/13 17:10:32;;;;;;;1.45;0.50;;;22.80;87.30;;;;;;1898637;75;21086;-83
2023/03/13 17:13:24;;;;;;;1.32;0.60;;;22.70;87.90;;;;;;1902021;73;21110;-85
2023/03/13 17:16:18;;;;;;;2.12;0.82;;;22.60;88.10;;;;;;1910828;75;21132;-86
2023/03/13 17:19:15;;;;;;;0.45;0.40;;;22.60;88.60;;;;;;1885861;74;21124;-85
2023/03/13 17:22:06;;;;;;;0.80;0.40;;;22.50;89.10;;;;;;1903772;74;21141;-85
2023/03/13 17:24:58;;;;;;;0.40;0.40;;;22.50;89.50;;;;;;1903680;74;21045;-84
2023/03/13 17:27:49;;;;;;;1.22;0.50;;;22.40;90.00;;;;;;1910757;73;21105;-84
2023/03/13 17:30:41;;;;;;;2.50;0.50;;;22.40;90.30;;;;;;1911101;74;21096;-84
2023/03/13 17:33:32;;;;;;;1.37;0.50;;;22.20;90.50;;;;;;1889203;76;21515;-84
2023/03/13 17:36:26;;;;;;;0.80;0.60;;;22.20;90.60;;;;;;1904192;74;21139;-84
2023/03/13 17:39:17;;;;;;;2.50;0.40;;;22.00;91.10;;;;;;1912905;74;21153;-84
2023/03/13 17:42:09;;;;;;;0.80;0.47;;;22.00;91.30;;;;;;1911828;73;21090;-86
2023/03/13 17:45:00;;;;;;;1.30;0.50;;;22.00;91.40;;;;;;1856260;76;21105;-85
2023/03/13 17:47:53;;;;;;;0.60;0.40;;;21.90;91.40;;;;;;1896006;75;21134;-86
2023/03/13 17:50:45;;;;;;;1.55;0.50;;;21.80;91.70;;;;;;1890900;75;21105;-86
2023/03/13 17:53:36;;;;;;;0.70;0.40;;;21.70;91.90;;;;;;1891172;75;21093;-86
2023/03/13 17:56:30;;;;;;;1.50;0.55;;;21.70;92.10;;;;;;1891304;75;21104;-86
2023/03/13 17:59:21;;;;;;;1.25;0.50;;;21.70;92.30;;;;;;1897566;75;21203;-85
2023/03/13 18:02:14;;;;;;;1.30;0.50;;;21.80;92.40;;;;;;1892575;75;21648;-85
2023/03/13 18:05:07;;;;;;;5.40;0.60;;;21.60;92.70;;;;;;1855084;76;21175;-85
2023/03/13 18:07:59;;;;;;;1.52;0.60;;;21.70;92.90;;;;;;1890808;75;21117;-85
2023/03/13 18:10:50;;;;;;;0.98;0.40;;;21.60;93.00;;;;;;1876221;76;21432;-85
2023/03/13 18:13:44;;;;;;;1.82;0.60;;;21.60;93.20;;;;;;1894529;75;21120;-88
2023/03/13 18:16:41;;;;;;;0.53;0.40;;;21.60;93.30;;;;;;1883684;75;21101;-88
2023/03/13 18:19:32;;;;;;;0.70;0.50;;;21.70;93.30;;;;;;1889911;75;21177;-88
2023/03/13 18:22:28;;;;;;;0.82;0.47;;;21.60;93.40;;;;;;1913286;75;21600;-88
2023/03/13 18:25:23;;;;;;;1.22;0.53;;;21.40;93.40;;;;;;1873166;75;21099;-87
2023/03/13 18:30:54;;;;;;;1.77;0.78;;;21.50;93.60;;;;;;1952664;72;22169;-87
2023/03/13 18:33:46;;;;;;;1.05;0.50;;;21.50;93.60;;;;;;1914645;74;21139;-88
2023/03/13 18:36:39;;;;;;;2.25;0.50;;;21.50;93.70;;;;;;1906985;74;21110;-87